sensor_id;sensor_type;location;lat;lon;timestamp;temperature;humidity
1546;DHT22;766;51.502;9.752;2022-11-15T00:01:20;11.60;99.90
1546;DHT22;766;51.502;9.752;2022-11-15T00:03:51;11.60;99.90
1546;DHT22;766;51.502;9.752;2022-11-15T00:06:22;11.60;99.90
1546;DHT22;766;51.502;9.752;2022-11-15T00:08:52;11.50;99.90
1546;DHT22;766;51.502;9.752;2022-11-15T00:11:21;11.50;99.90
1546;DHT22;766;51.502;9.752;2022-11-15T00:13:49;11.50;99.90
1546;DHT22;766;51.502;9.752;2022-11-15T00:16:17;11.50;99.90
1546;DHT22;766;51.502;9.752;2022-11-15T00:18:46;11.60;99.90
1546;DHT22;766;51.502;9.752;2022-11-15T00:21:17;11.60;99.90
1546;DHT22;766;51.502;9.752;2022-11-15T00:23:46;11.60;99.90
1546;DHT22;766;51.502;9.752;2022-11-15T00:26:16;11.60;99.90
1546;DHT22;766;51.502;9.752;2022-11-15T00:28:47;11.60;99.90
1546;DHT22;766;51.502;9.752;2022-11-15T00:31:16;11.60;99.90
1546;DHT22;766;51.502;9.752;2022-11-15T00:33:44;11.50;99.90
1546;DHT22;766;51.502;9.752;2022-11-15T00:36:14;11.60;99.90
1546;DHT22;766;51.502;9.752;2022-11-15T00:38:42;11.50;99.90
1546;DHT22;766;51.502;9.752;2022-11-15T00:41:11;11.50;99.90
1546;DHT22;766;51.502;9.752;2022-11-15T00:43:40;11.50;99.90
1546;DHT22;766;51.502;9.752;2022-11-15T00:46:12;11.50;99.90
1546;DHT22;766;51.502;9.752;2022-11-15T00:48:42;11.50;99.90
1546;DHT22;766;51.502;9.752;2022-11-15T00:51:10;11.60;99.90
1546;DHT22;766;51.502;9.752;2022-11-15T00:53:39;11.50;99.90
1546;DHT22;766;51.502;9.752;2022-11-15T00:56:08;11.50;99.90
1546;DHT22;766;51.502;9.752;2022-11-15T00:58:36;11.60;99.90
1546;DHT22;766;51.502;9.752;2022-11-15T01:01:09;11.60;99.90
1546;DHT22;766;51.502;9.752;2022-11-15T01:03:39;11.60;99.90
1546;DHT22;766;51.502;9.752;2022-11-15T01:06:07;11.60;99.90
1546;DHT22;766;51.502;9.752;2022-11-15T01:08:37;11.60;99.90
1546;DHT22;766;51.502;9.752;2022-11-15T01:11:07;11.70;99.90
1546;DHT22;766;51.502;9.752;2022-11-15T01:13:37;11.70;99.90
1546;DHT22;766;51.502;9.752;2022-11-15T01:16:11;11.70;99.90
1546;DHT22;766;51.502;9.752;2022-11-15T01:18:40;11.60;99.90
1546;DHT22;766;51.502;9.752;2022-11-15T01:21:11;11.60;99.90
1546;DHT22;766;51.502;9.752;2022-11-15T01:23:41;11.50;99.90
1546;DHT22;766;51.502;9.752;2022-11-15T01:26:13;11.40;99.90
1546;DHT22;766;51.502;9.752;2022-11-15T01:28:45;11.40;99.90
1546;DHT22;766;51.502;9.752;2022-11-15T01:31:18;11.40;99.90
1546;DHT22;766;51.502;9.752;2022-11-15T01:33:47;11.40;99.90
1546;DHT22;766;51.502;9.752;2022-11-15T01:36:17;11.30;99.90
1546;DHT22;766;51.502;9.752;2022-11-15T01:38:46;11.30;99.90
1546;DHT22;766;51.502;9.752;2022-11-15T01:41:19;11.10;99.90
1546;DHT22;766;51.502;9.752;2022-11-15T01:43:51;11.20;99.90
1546;DHT22;766;51.502;9.752;2022-11-15T01:46:28;11.10;99.90
1546;DHT22;766;51.502;9.752;2022-11-15T01:49:02;11.10;99.90
1546;DHT22;766;51.502;9.752;2022-11-15T01:51:35;11.10;99.90
1546;DHT22;766;51.502;9.752;2022-11-15T01:54:08;11.00;99.90
1546;DHT22;766;51.502;9.752;2022-11-15T01:56:41;10.90;99.90
1546;DHT22;766;51.502;9.752;2022-11-15T01:59:12;10.90;99.90
1546;DHT22;766;51.502;9.752;2022-11-15T02:01:42;10.90;99.90
1546;DHT22;766;51.502;9.752;2022-11-15T02:04:14;10.90;99.90
1546;DHT22;766;51.502;9.752;2022-11-15T02:06:46;10.90;99.90
1546;DHT22;766;51.502;9.752;2022-11-15T02:09:16;11.00;99.90
1546;DHT22;766;51.502;9.752;2022-11-15T02:11:47;11.10;99.90
1546;DHT22;766;51.502;9.752;2022-11-15T02:14:18;11.00;99.90
1546;DHT22;766;51.502;9.752;2022-11-15T02:16:54;11.00;99.90
1546;DHT22;766;51.502;9.752;2022-11-15T02:19:41;11.00;99.90
1546;DHT22;766;51.502;9.752;2022-11-15T02:22:24;11.00;99.90
1546;DHT22;766;51.502;9.752;2022-11-15T02:25:06;10.90;99.90
1546;DHT22;766;51.502;9.752;2022-11-15T02:28:10;10.80;99.90
1546;DHT22;766;51.502;9.752;2022-11-15T02:30:52;10.80;99.90
1546;DHT22;766;51.502;9.752;2022-11-15T02:33:30;10.70;99.90
1546;DHT22;766;51.502;9.752;2022-11-15T02:36:07;10.70;99.90
1546;DHT22;766;51.502;9.752;2022-11-15T02:38:40;10.60;99.90
1546;DHT22;766;51.502;9.752;2022-11-15T02:41:16;10.60;99.90
1546;DHT22;766;51.502;9.752;2022-11-15T02:43:49;10.60;99.90
1546;DHT22;766;51.502;9.752;2022-11-15T02:46:31;10.40;99.90
1546;DHT22;766;51.502;9.752;2022-11-15T02:49:21;10.40;99.90
1546;DHT22;766;51.502;9.752;2022-11-15T02:51:54;10.50;99.90
1546;DHT22;766;51.502;9.752;2022-11-15T02:54:25;10.50;99.90
1546;DHT22;766;51.502;9.752;2022-11-15T02:56:59;10.40;99.90
1546;DHT22;766;51.502;9.752;2022-11-15T02:59:43;10.40;99.90
1546;DHT22;766;51.502;9.752;2022-11-15T03:02:28;10.30;99.90
1546;DHT22;766;51.502;9.752;2022-11-15T03:05:04;10.30;99.90
1546;DHT22;766;51.502;9.752;2022-11-15T03:07:42;10.30;99.90
1546;DHT22;766;51.502;9.752;2022-11-15T03:10:17;10.30;99.90
1546;DHT22;766;51.502;9.752;2022-11-15T03:12:55;10.30;99.90
1546;DHT22;766;51.502;9.752;2022-11-15T03:15:29;10.40;99.90
1546;DHT22;766;51.502;9.752;2022-11-15T03:18:02;10.30;99.90
1546;DHT22;766;51.502;9.752;2022-11-15T03:20:35;10.30;99.90
1546;DHT22;766;51.502;9.752;2022-11-15T03:23:10;10.50;99.90
1546;DHT22;766;51.502;9.752;2022-11-15T03:25:43;10.60;99.90
1546;DHT22;766;51.502;9.752;2022-11-15T03:28:16;10.60;99.90
1546;DHT22;766;51.502;9.752;2022-11-15T03:30:49;10.60;99.90
1546;DHT22;766;51.502;9.752;2022-11-15T03:33:23;10.60;99.90
1546;DHT22;766;51.502;9.752;2022-11-15T03:35:54;10.70;99.90
1546;DHT22;766;51.502;9.752;2022-11-15T03:38:27;10.70;99.90
1546;DHT22;766;51.502;9.752;2022-11-15T03:41:05;10.70;99.90
1546;DHT22;766;51.502;9.752;2022-11-15T03:43:39;10.70;99.90
1546;DHT22;766;51.502;9.752;2022-11-15T03:46:13;10.70;99.90
1546;DHT22;766;51.502;9.752;2022-11-15T03:48:48;10.70;99.90
1546;DHT22;766;51.502;9.752;2022-11-15T03:51:17;10.70;99.90
1546;DHT22;766;51.502;9.752;2022-11-15T03:53:47;10.70;99.90
1546;DHT22;766;51.502;9.752;2022-11-15T03:56:17;10.70;99.90
1546;DHT22;766;51.502;9.752;2022-11-15T03:58:45;10.70;99.90
1546;DHT22;766;51.502;9.752;2022-11-15T04:01:15;10.70;99.90
1546;DHT22;766;51.502;9.752;2022-11-15T04:03:45;10.70;99.90
1546;DHT22;766;51.502;9.752;2022-11-15T04:06:16;10.70;99.90
1546;DHT22;766;51.502;9.752;2022-11-15T04:08:45;10.70;99.90
1546;DHT22;766;51.502;9.752;2022-11-15T04:11:15;10.70;99.90
1546;DHT22;766;51.502;9.752;2022-11-15T04:13:45;10.60;99.90
1546;DHT22;766;51.502;9.752;2022-11-15T04:16:14;10.60;99.90
1546;DHT22;766;51.502;9.752;2022-11-15T04:18:42;10.50;99.90
1546;DHT22;766;51.502;9.752;2022-11-15T04:21:13;10.30;99.90
1546;DHT22;766;51.502;9.752;2022-11-15T04:23:59;10.10;99.90
1546;DHT22;766;51.502;9.752;2022-11-15T04:26:45;10.00;99.90
1546;DHT22;766;51.502;9.752;2022-11-15T04:29:13;9.80;99.90
1546;DHT22;766;51.502;9.752;2022-11-15T04:31:55;9.60;99.90
1546;DHT22;766;51.502;9.752;2022-11-15T04:34:23;9.50;99.90
1546;DHT22;766;51.502;9.752;2022-11-15T04:36:53;9.30;99.90
1546;DHT22;766;51.502;9.752;2022-11-15T04:39:40;9.40;99.90
1546;DHT22;766;51.502;9.752;2022-11-15T04:42:09;9.30;99.90
1546;DHT22;766;51.502;9.752;2022-11-15T04:44:38;9.20;99.90
1546;DHT22;766;51.502;9.752;2022-11-15T04:47:09;9.10;99.90
1546;DHT22;766;51.502;9.752;2022-11-15T04:49:38;9.00;99.90
1546;DHT22;766;51.502;9.752;2022-11-15T04:52:09;9.00;99.90
1546;DHT22;766;51.502;9.752;2022-11-15T04:54:37;9.10;99.90
1546;DHT22;766;51.502;9.752;2022-11-15T04:57:06;9.00;99.90
1546;DHT22;766;51.502;9.752;2022-11-15T04:59:35;8.90;99.90
1546;DHT22;766;51.502;9.752;2022-11-15T05:02:05;9.00;99.90
1546;DHT22;766;51.502;9.752;2022-11-15T05:04:34;9.00;99.90
1546;DHT22;766;51.502;9.752;2022-11-15T05:07:02;9.20;99.90
1546;DHT22;766;51.502;9.752;2022-11-15T05:09:41;9.30;99.90
1546;DHT22;766;51.502;9.752;2022-11-15T05:12:12;9.40;99.90
1546;DHT22;766;51.502;9.752;2022-11-15T05:14:40;9.40;99.90
1546;DHT22;766;51.502;9.752;2022-11-15T05:17:09;9.40;99.90
1546;DHT22;766;51.502;9.752;2022-11-15T05:19:40;9.40;99.90
1546;DHT22;766;51.502;9.752;2022-11-15T05:22:08;9.40;99.90
1546;DHT22;766;51.502;9.752;2022-11-15T05:24:40;9.40;99.90
1546;DHT22;766;51.502;9.752;2022-11-15T05:27:08;9.50;99.90
1546;DHT22;766;51.502;9.752;2022-11-15T05:29:37;9.60;99.90
1546;DHT22;766;51.502;9.752;2022-11-15T05:32:06;9.70;99.90
1546;DHT22;766;51.502;9.752;2022-11-15T05:34:37;9.80;99.90
1546;DHT22;766;51.502;9.752;2022-11-15T05:37:06;10.00;99.90
1546;DHT22;766;51.502;9.752;2022-11-15T05:39:36;10.20;99.90
1546;DHT22;766;51.502;9.752;2022-11-15T05:42:09;10.40;99.90
1546;DHT22;766;51.502;9.752;2022-11-15T05:44:39;10.40;99.90
1546;DHT22;766;51.502;9.752;2022-11-15T05:47:15;10.50;99.90
1546;DHT22;766;51.502;9.752;2022-11-15T05:49:46;10.50;99.90
1546;DHT22;766;51.502;9.752;2022-11-15T05:52:17;10.50;99.90
1546;DHT22;766;51.502;9.752;2022-11-15T05:54:47;10.50;99.90
1546;DHT22;766;51.502;9.752;2022-11-15T05:57:17;10.50;99.90
1546;DHT22;766;51.502;9.752;2022-11-15T05:59:46;10.40;99.90
1546;DHT22;766;51.502;9.752;2022-11-15T06:02:16;10.50;99.90
1546;DHT22;766;51.502;9.752;2022-11-15T06:04:45;10.40;99.90
1546;DHT22;766;51.502;9.752;2022-11-15T06:07:13;10.40;99.90
1546;DHT22;766;51.502;9.752;2022-11-15T06:09:43;10.30;99.90
1546;DHT22;766;51.502;9.752;2022-11-15T06:12:20;10.30;99.90
1546;DHT22;766;51.502;9.752;2022-11-15T06:14:48;10.30;99.90
1546;DHT22;766;51.502;9.752;2022-11-15T06:17:45;10.20;99.90
1546;DHT22;766;51.502;9.752;2022-11-15T06:20:14;10.30;99.90
1546;DHT22;766;51.502;9.752;2022-11-15T06:22:42;10.20;99.90
1546;DHT22;766;51.502;9.752;2022-11-15T06:25:12;10.30;99.90
1546;DHT22;766;51.502;9.752;2022-11-15T06:27:50;10.20;99.90
1546;DHT22;766;51.502;9.752;2022-11-15T06:30:19;10.30;99.90
1546;DHT22;766;51.502;9.752;2022-11-15T06:32:48;10.20;99.90
1546;DHT22;766;51.502;9.752;2022-11-15T06:35:16;10.30;99.90
1546;DHT22;766;51.502;9.752;2022-11-15T06:37:45;10.20;99.90
1546;DHT22;766;51.502;9.752;2022-11-15T06:40:14;10.00;99.90
1546;DHT22;766;51.502;9.752;2022-11-15T06:42:45;9.90;99.90
1546;DHT22;766;51.502;9.752;2022-11-15T06:45:15;9.90;99.90
1546;DHT22;766;51.502;9.752;2022-11-15T06:47:47;9.60;99.90
1546;DHT22;766;51.502;9.752;2022-11-15T06:50:15;9.60;99.90
1546;DHT22;766;51.502;9.752;2022-11-15T06:52:45;9.60;99.90
1546;DHT22;766;51.502;9.752;2022-11-15T06:55:15;9.50;99.90
1546;DHT22;766;51.502;9.752;2022-11-15T06:57:49;9.50;99.90
1546;DHT22;766;51.502;9.752;2022-11-15T07:00:21;9.60;99.90
1546;DHT22;766;51.502;9.752;2022-11-15T07:02:50;9.50;99.90
1546;DHT22;766;51.502;9.752;2022-11-15T07:05:18;9.40;99.90
1546;DHT22;766;51.502;9.752;2022-11-15T07:07:51;9.40;99.90
1546;DHT22;766;51.502;9.752;2022-11-15T07:10:22;9.30;99.90
1546;DHT22;766;51.502;9.752;2022-11-15T07:12:54;9.20;99.90
1546;DHT22;766;51.502;9.752;2022-11-15T07:15:25;9.20;99.90
1546;DHT22;766;51.502;9.752;2022-11-15T07:18:00;9.10;99.90
1546;DHT22;766;51.502;9.752;2022-11-15T07:20:31;9.20;99.90
1546;DHT22;766;51.502;9.752;2022-11-15T07:23:04;9.10;99.90
1546;DHT22;766;51.502;9.752;2022-11-15T07:25:32;9.10;99.90
1546;DHT22;766;51.502;9.752;2022-11-15T07:28:03;9.10;99.90
1546;DHT22;766;51.502;9.752;2022-11-15T07:30:32;9.10;99.90
1546;DHT22;766;51.502;9.752;2022-11-15T07:33:04;9.00;99.90
1546;DHT22;766;51.502;9.752;2022-11-15T07:35:33;9.00;99.90
1546;DHT22;766;51.502;9.752;2022-11-15T07:38:03;9.00;99.90
1546;DHT22;766;51.502;9.752;2022-11-15T07:40:32;8.90;99.90
1546;DHT22;766;51.502;9.752;2022-11-15T07:43:01;8.80;99.90
1546;DHT22;766;51.502;9.752;2022-11-15T07:45:32;8.80;99.90
1546;DHT22;766;51.502;9.752;2022-11-15T07:48:01;8.80;99.90
1546;DHT22;766;51.502;9.752;2022-11-15T07:50:30;8.90;99.90
1546;DHT22;766;51.502;9.752;2022-11-15T07:53:00;9.00;99.90
1546;DHT22;766;51.502;9.752;2022-11-15T07:55:29;9.00;99.90
1546;DHT22;766;51.502;9.752;2022-11-15T07:58:01;9.00;99.90
1546;DHT22;766;51.502;9.752;2022-11-15T08:00:31;9.10;99.90
1546;DHT22;766;51.502;9.752;2022-11-15T08:03:04;9.10;99.90
1546;DHT22;766;51.502;9.752;2022-11-15T08:05:32;9.30;99.90
1546;DHT22;766;51.502;9.752;2022-11-15T08:08:01;9.50;99.90
1546;DHT22;766;51.502;9.752;2022-11-15T08:10:29;9.60;99.90
1546;DHT22;766;51.502;9.752;2022-11-15T08:13:07;9.80;99.90
1546;DHT22;766;51.502;9.752;2022-11-15T08:15:37;9.90;99.90
1546;DHT22;766;51.502;9.752;2022-11-15T08:18:09;10.00;99.90
1546;DHT22;766;51.502;9.752;2022-11-15T08:20:39;10.00;99.90
1546;DHT22;766;51.502;9.752;2022-11-15T08:23:09;10.00;99.90
1546;DHT22;766;51.502;9.752;2022-11-15T08:25:39;10.10;99.90
1546;DHT22;766;51.502;9.752;2022-11-15T08:28:10;10.30;99.90
1546;DHT22;766;51.502;9.752;2022-11-15T08:30:41;10.50;99.90
1546;DHT22;766;51.502;9.752;2022-11-15T08:33:13;10.80;99.90
1546;DHT22;766;51.502;9.752;2022-11-15T08:35:42;10.90;99.90
1546;DHT22;766;51.502;9.752;2022-11-15T08:38:11;11.00;99.90
1546;DHT22;766;51.502;9.752;2022-11-15T08:40:39;11.00;99.90
1546;DHT22;766;51.502;9.752;2022-11-15T08:43:08;10.90;99.90
1546;DHT22;766;51.502;9.752;2022-11-15T08:45:41;11.00;99.90
1546;DHT22;766;51.502;9.752;2022-11-15T08:48:09;11.20;99.90
1546;DHT22;766;51.502;9.752;2022-11-15T08:50:39;11.30;99.90
1546;DHT22;766;51.502;9.752;2022-11-15T08:53:07;11.20;99.90
1546;DHT22;766;51.502;9.752;2022-11-15T08:55:37;11.20;99.90
1546;DHT22;766;51.502;9.752;2022-11-15T08:58:05;11.30;99.90
1546;DHT22;766;51.502;9.752;2022-11-15T09:00:35;11.20;99.90
1546;DHT22;766;51.502;9.752;2022-11-15T09:03:05;11.20;99.90
1546;DHT22;766;51.502;9.752;2022-11-15T09:05:36;11.40;99.90
1546;DHT22;766;51.502;9.752;2022-11-15T09:08:05;11.60;99.90
1546;DHT22;766;51.502;9.752;2022-11-15T09:10:53;11.80;99.90
1546;DHT22;766;51.502;9.752;2022-11-15T09:13:25;11.60;99.90
1546;DHT22;766;51.502;9.752;2022-11-15T09:15:57;11.90;99.90
1546;DHT22;766;51.502;9.752;2022-11-15T09:18:31;12.00;99.90
1546;DHT22;766;51.502;9.752;2022-11-15T09:21:08;12.10;99.90
1546;DHT22;766;51.502;9.752;2022-11-15T09:23:37;12.30;99.90
1546;DHT22;766;51.502;9.752;2022-11-15T09:26:06;12.20;99.90
1546;DHT22;766;51.502;9.752;2022-11-15T09:28:36;12.00;99.90
1546;DHT22;766;51.502;9.752;2022-11-15T09:31:05;12.00;99.90
1546;DHT22;766;51.502;9.752;2022-11-15T09:33:36;11.60;99.90
1546;DHT22;766;51.502;9.752;2022-11-15T09:36:07;11.60;99.90
1546;DHT22;766;51.502;9.752;2022-11-15T09:38:36;11.80;99.90
1546;DHT22;766;51.502;9.752;2022-11-15T09:41:30;11.70;99.90
1546;DHT22;766;51.502;9.752;2022-11-15T09:44:16;11.60;99.90
1546;DHT22;766;51.502;9.752;2022-11-15T09:46:59;11.70;99.90
1546;DHT22;766;51.502;9.752;2022-11-15T09:49:33;11.70;99.90
1546;DHT22;766;51.502;9.752;2022-11-15T09:52:02;11.70;99.90
1546;DHT22;766;51.502;9.752;2022-11-15T09:54:35;11.40;99.90
1546;DHT22;766;51.502;9.752;2022-11-15T09:57:31;11.30;99.90
1546;DHT22;766;51.502;9.752;2022-11-15T10:00:12;11.70;99.90
1546;DHT22;766;51.502;9.752;2022-11-15T10:03:11;12.00;99.90
1546;DHT22;766;51.502;9.752;2022-11-15T10:05:43;12.00;99.90
1546;DHT22;766;51.502;9.752;2022-11-15T10:08:37;12.10;99.90
1546;DHT22;766;51.502;9.752;2022-11-15T10:11:17;12.20;99.90
1546;DHT22;766;51.502;9.752;2022-11-15T10:14:10;12.20;99.90
1546;DHT22;766;51.502;9.752;2022-11-15T10:19:54;12.50;99.90
1546;DHT22;766;51.502;9.752;2022-11-15T10:22:38;12.50;99.90
1546;DHT22;766;51.502;9.752;2022-11-15T10:25:21;12.60;99.90
1546;DHT22;766;51.502;9.752;2022-11-15T10:27:56;12.60;99.90
1546;DHT22;766;51.502;9.752;2022-11-15T10:30:37;12.80;99.90
1546;DHT22;766;51.502;9.752;2022-11-15T10:33:25;12.80;99.90
1546;DHT22;766;51.502;9.752;2022-11-15T10:36:17;12.90;99.90
1546;DHT22;766;51.502;9.752;2022-11-15T10:38:57;12.90;99.90
1546;DHT22;766;51.502;9.752;2022-11-15T10:41:32;13.00;99.90
1546;DHT22;766;51.502;9.752;2022-11-15T10:44:17;13.00;99.90
1546;DHT22;766;51.502;9.752;2022-11-15T10:47:25;13.00;99.90
1546;DHT22;766;51.502;9.752;2022-11-15T10:50:04;13.00;99.90
1546;DHT22;766;51.502;9.752;2022-11-15T10:52:36;12.90;99.90
1546;DHT22;766;51.502;9.752;2022-11-15T10:55:26;12.90;99.90
1546;DHT22;766;51.502;9.752;2022-11-15T10:58:02;13.20;99.90
1546;DHT22;766;51.502;9.752;2022-11-15T11:00:36;13.40;99.90
1546;DHT22;766;51.502;9.752;2022-11-15T11:03:21;13.80;99.90
1546;DHT22;766;51.502;9.752;2022-11-15T11:06:04;14.00;99.90
1546;DHT22;766;51.502;9.752;2022-11-15T11:08:33;14.00;99.90
1546;DHT22;766;51.502;9.752;2022-11-15T11:11:07;14.10;99.90
1546;DHT22;766;51.502;9.752;2022-11-15T11:13:38;14.10;99.90
1546;DHT22;766;51.502;9.752;2022-11-15T11:19:18;14.10;99.90
1546;DHT22;766;51.502;9.752;2022-11-15T11:21:54;14.20;99.90
1546;DHT22;766;51.502;9.752;2022-11-15T11:24:32;14.30;99.90
1546;DHT22;766;51.502;9.752;2022-11-15T11:27:13;14.50;99.90
1546;DHT22;766;51.502;9.752;2022-11-15T11:29:57;14.30;99.90
1546;DHT22;766;51.502;9.752;2022-11-15T11:32:49;14.50;99.90
1546;DHT22;766;51.502;9.752;2022-11-15T11:35:25;14.30;99.90
1546;DHT22;766;51.502;9.752;2022-11-15T11:37:57;14.40;99.90
1546;DHT22;766;51.502;9.752;2022-11-15T11:40:30;14.30;99.90
1546;DHT22;766;51.502;9.752;2022-11-15T11:43:07;14.20;99.90
1546;DHT22;766;51.502;9.752;2022-11-15T11:45:56;14.20;99.90
1546;DHT22;766;51.502;9.752;2022-11-15T11:48:41;14.00;99.90
1546;DHT22;766;51.502;9.752;2022-11-15T11:51:16;13.90;99.90
1546;DHT22;766;51.502;9.752;2022-11-15T11:53:54;13.80;99.90
1546;DHT22;766;51.502;9.752;2022-11-15T11:56:28;13.90;99.90
1546;DHT22;766;51.502;9.752;2022-11-15T11:59:02;13.70;99.90
1546;DHT22;766;51.502;9.752;2022-11-15T12:01:39;13.70;99.90
1546;DHT22;766;51.502;9.752;2022-11-15T12:04:14;13.80;99.90
1546;DHT22;766;51.502;9.752;2022-11-15T12:06:48;14.00;99.90
1546;DHT22;766;51.502;9.752;2022-11-15T12:09:23;14.10;99.90
1546;DHT22;766;51.502;9.752;2022-11-15T12:11:59;14.20;99.90
1546;DHT22;766;51.502;9.752;2022-11-15T12:14:38;14.10;99.90
1546;DHT22;766;51.502;9.752;2022-11-15T12:17:10;14.00;99.90
1546;DHT22;766;51.502;9.752;2022-11-15T12:19:39;14.00;99.90
1546;DHT22;766;51.502;9.752;2022-11-15T12:22:15;14.10;99.90
1546;DHT22;766;51.502;9.752;2022-11-15T12:24:50;14.10;99.90
1546;DHT22;766;51.502;9.752;2022-11-15T12:27:26;14.10;99.90
1546;DHT22;766;51.502;9.752;2022-11-15T12:30:03;14.10;99.90
1546;DHT22;766;51.502;9.752;2022-11-15T12:32:34;14.10;99.90
1546;DHT22;766;51.502;9.752;2022-11-15T12:35:12;14.10;99.90
1546;DHT22;766;51.502;9.752;2022-11-15T12:37:49;14.30;99.90
1546;DHT22;766;51.502;9.752;2022-11-15T12:40:24;14.50;99.90
1546;DHT22;766;51.502;9.752;2022-11-15T12:43:03;14.60;99.90
1546;DHT22;766;51.502;9.752;2022-11-15T12:45:35;14.90;99.90
1546;DHT22;766;51.502;9.752;2022-11-15T12:55:28;14.90;99.90
1546;DHT22;766;51.502;9.752;2022-11-15T12:58:26;14.50;99.90
1546;DHT22;766;51.502;9.752;2022-11-15T13:01:00;14.40;99.90
1546;DHT22;766;51.502;9.752;2022-11-15T13:03:29;14.70;99.90
1546;DHT22;766;51.502;9.752;2022-11-15T13:06:05;14.60;99.90
1546;DHT22;766;51.502;9.752;2022-11-15T13:08:40;14.60;99.90
1546;DHT22;766;51.502;9.752;2022-11-15T13:11:41;14.40;99.90
1546;DHT22;766;51.502;9.752;2022-11-15T13:14:40;14.60;99.90
1546;DHT22;766;51.502;9.752;2022-11-15T13:17:34;14.70;99.90
1546;DHT22;766;51.502;9.752;2022-11-15T13:20:21;15.10;99.90
1546;DHT22;766;51.502;9.752;2022-11-15T13:23:01;15.10;99.90
1546;DHT22;766;51.502;9.752;2022-11-15T13:25:57;15.20;99.90
1546;DHT22;766;51.502;9.752;2022-11-15T13:28:35;14.60;99.90
1546;DHT22;766;51.502;9.752;2022-11-15T13:31:19;14.60;99.90
1546;DHT22;766;51.502;9.752;2022-11-15T13:33:54;14.40;99.90
1546;DHT22;766;51.502;9.752;2022-11-15T13:36:25;14.00;99.90
1546;DHT22;766;51.502;9.752;2022-11-15T13:38:57;13.90;99.90
1546;DHT22;766;51.502;9.752;2022-11-15T13:41:28;13.70;99.90
1546;DHT22;766;51.502;9.752;2022-11-15T13:43:57;13.60;99.90
1546;DHT22;766;51.502;9.752;2022-11-15T13:46:27;13.80;99.90
1546;DHT22;766;51.502;9.752;2022-11-15T13:49:01;13.80;99.90
1546;DHT22;766;51.502;9.752;2022-11-15T13:51:35;13.70;99.90
1546;DHT22;766;51.502;9.752;2022-11-15T13:54:14;13.60;99.90
1546;DHT22;766;51.502;9.752;2022-11-15T13:56:49;13.50;99.90
1546;DHT22;766;51.502;9.752;2022-11-15T13:59:24;13.40;99.90
1546;DHT22;766;51.502;9.752;2022-11-15T14:01:58;13.30;99.90
1546;DHT22;766;51.502;9.752;2022-11-15T14:04:30;13.40;99.90
1546;DHT22;766;51.502;9.752;2022-11-15T14:07:02;13.40;99.90
1546;DHT22;766;51.502;9.752;2022-11-15T14:09:33;13.30;99.90
1546;DHT22;766;51.502;9.752;2022-11-15T14:12:23;13.40;99.90
1546;DHT22;766;51.502;9.752;2022-11-15T14:14:53;13.30;99.90
1546;DHT22;766;51.502;9.752;2022-11-15T14:17:53;13.30;99.90
1546;DHT22;766;51.502;9.752;2022-11-15T14:21:23;13.30;99.90
1546;DHT22;766;51.502;9.752;2022-11-15T14:24:15;13.20;99.90
1546;DHT22;766;51.502;9.752;2022-11-15T14:27:19;13.10;99.90
1546;DHT22;766;51.502;9.752;2022-11-15T15:31:37;12.70;99.90
1546;DHT22;766;51.502;9.752;2022-11-15T15:34:26;12.70;99.90
1546;DHT22;766;51.502;9.752;2022-11-15T15:37:22;12.60;99.90
1546;DHT22;766;51.502;9.752;2022-11-15T15:40:14;12.50;99.90
1546;DHT22;766;51.502;9.752;2022-11-15T15:43:04;12.50;99.90
1546;DHT22;766;51.502;9.752;2022-11-15T15:45:56;12.50;99.90
1546;DHT22;766;51.502;9.752;2022-11-15T15:48:47;12.50;99.90
1546;DHT22;766;51.502;9.752;2022-11-15T15:51:36;12.50;99.90
1546;DHT22;766;51.502;9.752;2022-11-15T15:54:24;12.40;99.90
1546;DHT22;766;51.502;9.752;2022-11-15T15:57:13;12.40;99.90
1546;DHT22;766;51.502;9.752;2022-11-15T16:00:03;12.40;99.90
1546;DHT22;766;51.502;9.752;2022-11-15T16:02:52;12.20;99.90
1546;DHT22;766;51.502;9.752;2022-11-15T16:05:42;12.10;99.90
1546;DHT22;766;51.502;9.752;2022-11-15T16:08:17;12.00;99.90
1546;DHT22;766;51.502;9.752;2022-11-15T16:10:46;12.00;99.90
1546;DHT22;766;51.502;9.752;2022-11-15T16:13:15;11.80;99.90
1546;DHT22;766;51.502;9.752;2022-11-15T16:15:52;11.80;99.90
1546;DHT22;766;51.502;9.752;2022-11-15T16:18:23;11.80;99.90
1546;DHT22;766;51.502;9.752;2022-11-15T16:20:55;11.80;99.90
1546;DHT22;766;51.502;9.752;2022-11-15T16:23:23;11.70;99.90
1546;DHT22;766;51.502;9.752;2022-11-15T16:25:54;11.60;99.90
1546;DHT22;766;51.502;9.752;2022-11-15T16:28:24;11.70;99.90
1546;DHT22;766;51.502;9.752;2022-11-15T16:31:00;11.80;99.90
1546;DHT22;766;51.502;9.752;2022-11-15T16:33:29;11.80;99.90
1546;DHT22;766;51.502;9.752;2022-11-15T16:36:01;11.70;99.90
1546;DHT22;766;51.502;9.752;2022-11-15T16:38:30;11.80;99.90
1546;DHT22;766;51.502;9.752;2022-11-15T16:40:59;11.80;99.90
1546;DHT22;766;51.502;9.752;2022-11-15T16:43:29;11.70;99.90
1546;DHT22;766;51.502;9.752;2022-11-15T16:45:57;11.70;99.90
1546;DHT22;766;51.502;9.752;2022-11-15T16:48:27;11.60;99.90
1546;DHT22;766;51.502;9.752;2022-11-15T16:50:57;11.50;99.90
1546;DHT22;766;51.502;9.752;2022-11-15T16:53:27;11.50;99.90
1546;DHT22;766;51.502;9.752;2022-11-15T16:55:56;11.40;99.90
1546;DHT22;766;51.502;9.752;2022-11-15T16:58:25;11.40;99.90
1546;DHT22;766;51.502;9.752;2022-11-15T17:00:58;11.30;99.90
1546;DHT22;766;51.502;9.752;2022-11-15T17:03:26;11.30;99.90
1546;DHT22;766;51.502;9.752;2022-11-15T17:05:58;11.40;99.90
1546;DHT22;766;51.502;9.752;2022-11-15T17:08:28;11.30;99.90
1546;DHT22;766;51.502;9.752;2022-11-15T17:10:58;11.30;99.90
1546;DHT22;766;51.502;9.752;2022-11-15T17:13:26;11.30;99.90
1546;DHT22;766;51.502;9.752;2022-11-15T17:16:03;11.20;99.90
1546;DHT22;766;51.502;9.752;2022-11-15T17:18:33;11.30;99.90
1546;DHT22;766;51.502;9.752;2022-11-15T17:21:06;11.20;99.90
1546;DHT22;766;51.502;9.752;2022-11-15T17:23:36;11.20;99.90
1546;DHT22;766;51.502;9.752;2022-11-15T17:26:07;11.20;99.90
1546;DHT22;766;51.502;9.752;2022-11-15T17:28:56;11.20;99.90
1546;DHT22;766;51.502;9.752;2022-11-15T17:31:27;11.20;99.90
1546;DHT22;766;51.502;9.752;2022-11-15T17:33:57;11.20;99.90
1546;DHT22;766;51.502;9.752;2022-11-15T17:36:25;11.10;99.90
1546;DHT22;766;51.502;9.752;2022-11-15T17:38:55;11.10;99.90
1546;DHT22;766;51.502;9.752;2022-11-15T17:41:26;11.10;99.90
1546;DHT22;766;51.502;9.752;2022-11-15T17:43:55;11.00;99.90
1546;DHT22;766;51.502;9.752;2022-11-15T17:46:25;11.00;99.90
1546;DHT22;766;51.502;9.752;2022-11-15T17:48:55;11.00;99.90
1546;DHT22;766;51.502;9.752;2022-11-15T17:51:24;11.00;99.90
1546;DHT22;766;51.502;9.752;2022-11-15T17:53:55;11.10;99.90
1546;DHT22;766;51.502;9.752;2022-11-15T17:56:26;11.00;99.90
1546;DHT22;766;51.502;9.752;2022-11-15T17:58:57;11.00;99.90
1546;DHT22;766;51.502;9.752;2022-11-15T18:01:27;11.00;99.90
1546;DHT22;766;51.502;9.752;2022-11-15T18:03:57;11.00;99.90
1546;DHT22;766;51.502;9.752;2022-11-15T18:06:27;11.00;99.90
1546;DHT22;766;51.502;9.752;2022-11-15T18:08:59;11.00;99.90
1546;DHT22;766;51.502;9.752;2022-11-15T18:11:28;10.90;99.90
1546;DHT22;766;51.502;9.752;2022-11-15T18:13:59;10.90;99.90
1546;DHT22;766;51.502;9.752;2022-11-15T18:16:30;11.00;99.90
1546;DHT22;766;51.502;9.752;2022-11-15T18:19:00;11.00;99.90
1546;DHT22;766;51.502;9.752;2022-11-15T18:21:35;11.00;99.90